sensor_id;sensor_type;location;lat;lon;timestamp;P1;durP1;ratioP1;P2;durP2;ratioP2
26536;SDS011;14204;51.262;5.488;2023-02-05T00:02:05;135.30;;;41.40;;
26536;SDS011;14204;51.262;5.488;2023-02-05T00:04:31;97.85;;;36.90;;
26536;SDS011;14204;51.262;5.488;2023-02-05T00:06:58;91.28;;;35.33;;
26536;SDS011;14204;51.262;5.488;2023-02-05T00:09:23;91.00;;;35.60;;
26536;SDS011;14204;51.262;5.488;2023-02-05T00:11:49;106.28;;;38.95;;
26536;SDS011;14204;51.262;5.488;2023-02-05T00:14:15;107.38;;;44.22;;
26536;SDS011;14204;51.262;5.488;2023-02-05T00:16:40;108.82;;;41.90;;
26536;SDS011;14204;51.262;5.488;2023-02-05T00:19:06;122.30;;;46.60;;
26536;SDS011;14204;51.262;5.488;2023-02-05T00:21:32;116.80;;;45.67;;
26536;SDS011;14204;51.262;5.488;2023-02-05T00:23:57;113.13;;;47.75;;
26536;SDS011;14204;51.262;5.488;2023-02-05T00:26:23;116.15;;;46.22;;
26536;SDS011;14204;51.262;5.488;2023-02-05T00:28:49;114.07;;;46.70;;
26536;SDS011;14204;51.262;5.488;2023-02-05T00:31:15;129.88;;;49.33;;
26536;SDS011;14204;51.262;5.488;2023-02-05T00:33:45;126.95;;;45.60;;
26536;SDS011;14204;51.262;5.488;2023-02-05T00:36:12;113.28;;;46.45;;
26536;SDS011;14204;51.262;5.488;2023-02-05T00:38:38;121.20;;;48.22;;
26536;SDS011;14204;51.262;5.488;2023-02-05T00:41:05;121.18;;;46.53;;
26536;SDS011;14204;51.262;5.488;2023-02-05T00:43:30;116.93;;;50.22;;
26536;SDS011;14204;51.262;5.488;2023-02-05T00:45:56;145.80;;;50.10;;
26536;SDS011;14204;51.262;5.488;2023-02-05T00:48:22;122.47;;;47.58;;
26536;SDS011;14204;51.262;5.488;2023-02-05T00:50:48;146.70;;;49.88;;
26536;SDS011;14204;51.262;5.488;2023-02-05T00:53:14;110.75;;;45.72;;
26536;SDS011;14204;51.262;5.488;2023-02-05T00:55:40;114.88;;;46.08;;
26536;SDS011;14204;51.262;5.488;2023-02-05T00:58:06;131.00;;;47.30;;
26536;SDS011;14204;51.262;5.488;2023-02-05T01:00:32;113.22;;;47.42;;
26536;SDS011;14204;51.262;5.488;2023-02-05T01:02:58;128.00;;;50.75;;
26536;SDS011;14204;51.262;5.488;2023-02-05T01:05:24;119.95;;;49.60;;
26536;SDS011;14204;51.262;5.488;2023-02-05T01:07:50;116.80;;;47.25;;
26536;SDS011;14204;51.262;5.488;2023-02-05T01:10:16;105.70;;;46.90;;
26536;SDS011;14204;51.262;5.488;2023-02-05T01:12:42;126.35;;;51.38;;
26536;SDS011;14204;51.262;5.488;2023-02-05T01:15:08;133.02;;;51.67;;
26536;SDS011;14204;51.262;5.488;2023-02-05T01:17:36;119.53;;;50.13;;
26536;SDS011;14204;51.262;5.488;2023-02-05T01:20:02;130.48;;;53.17;;
26536;SDS011;14204;51.262;5.488;2023-02-05T01:22:27;122.82;;;51.58;;
26536;SDS011;14204;51.262;5.488;2023-02-05T01:24:53;113.63;;;48.80;;
26536;SDS011;14204;51.262;5.488;2023-02-05T01:27:19;117.30;;;47.15;;
26536;SDS011;14204;51.262;5.488;2023-02-05T01:29:44;138.23;;;56.10;;
26536;SDS011;14204;51.262;5.488;2023-02-05T01:32:10;133.77;;;54.38;;
26536;SDS011;14204;51.262;5.488;2023-02-05T01:34:36;124.78;;;52.03;;
26536;SDS011;14204;51.262;5.488;2023-02-05T01:37:01;138.50;;;55.55;;
26536;SDS011;14204;51.262;5.488;2023-02-05T01:39:27;119.85;;;51.78;;
26536;SDS011;14204;51.262;5.488;2023-02-05T01:41:53;122.95;;;52.53;;
26536;SDS011;14204;51.262;5.488;2023-02-05T01:44:20;114.22;;;50.20;;
26536;SDS011;14204;51.262;5.488;2023-02-05T01:46:49;136.68;;;54.45;;
26536;SDS011;14204;51.262;5.488;2023-02-05T01:51:50;114.13;;;51.83;;
26536;SDS011;14204;51.262;5.488;2023-02-05T01:54:19;106.95;;;46.92;;
26536;SDS011;14204;51.262;5.488;2023-02-05T01:56:54;147.93;;;55.60;;
26536;SDS011;14204;51.262;5.488;2023-02-05T01:59:29;120.15;;;49.63;;
26536;SDS011;14204;51.262;5.488;2023-02-05T02:01:58;110.95;;;49.50;;
26536;SDS011;14204;51.262;5.488;2023-02-05T02:07:01;129.23;;;52.58;;
26536;SDS011;14204;51.262;5.488;2023-02-05T02:09:28;118.18;;;50.00;;
26536;SDS011;14204;51.262;5.488;2023-02-05T02:11:53;114.38;;;52.75;;
26536;SDS011;14204;51.262;5.488;2023-02-05T02:14:20;116.50;;;50.90;;
26536;SDS011;14204;51.262;5.488;2023-02-05T02:16:47;130.57;;;55.40;;
26536;SDS011;14204;51.262;5.488;2023-02-05T02:19:58;121.05;;;51.97;;
26536;SDS011;14204;51.262;5.488;2023-02-05T02:24:46;139.63;;;58.08;;
26536;SDS011;14204;51.262;5.488;2023-02-05T02:27:37;123.07;;;54.35;;
26536;SDS011;14204;51.262;5.488;2023-02-05T02:32:39;133.88;;;57.13;;
26536;SDS011;14204;51.262;5.488;2023-02-05T02:45:50;125.35;;;52.17;;
26536;SDS011;14204;51.262;5.488;2023-02-05T02:48:21;137.23;;;55.38;;
26536;SDS011;14204;51.262;5.488;2023-02-05T02:50:49;132.98;;;53.45;;
26536;SDS011;14204;51.262;5.488;2023-02-05T02:53:18;122.35;;;49.03;;
26536;SDS011;14204;51.262;5.488;2023-02-05T02:55:47;123.47;;;50.60;;
26536;SDS011;14204;51.262;5.488;2023-02-05T02:58:15;131.13;;;50.85;;
26536;SDS011;14204;51.262;5.488;2023-02-05T03:00:47;118.32;;;50.75;;
26536;SDS011;14204;51.262;5.488;2023-02-05T03:03:14;126.18;;;49.40;;
26536;SDS011;14204;51.262;5.488;2023-02-05T03:05:43;120.38;;;49.40;;
26536;SDS011;14204;51.262;5.488;2023-02-05T03:08:18;107.00;;;46.25;;
26536;SDS011;14204;51.262;5.488;2023-02-05T03:13:28;94.97;;;43.53;;
26536;SDS011;14204;51.262;5.488;2023-02-05T03:15:54;109.93;;;46.20;;
26536;SDS011;14204;51.262;5.488;2023-02-05T03:18:20;99.22;;;44.53;;
26536;SDS011;14204;51.262;5.488;2023-02-05T03:23:17;91.22;;;42.25;;
26536;SDS011;14204;51.262;5.488;2023-02-05T03:25:43;82.32;;;37.13;;
26536;SDS011;14204;51.262;5.488;2023-02-05T03:28:09;82.43;;;37.60;;
26536;SDS011;14204;51.262;5.488;2023-02-05T03:33:26;74.97;;;36.10;;
26536;SDS011;14204;51.262;5.488;2023-02-05T03:39:00;76.32;;;36.85;;
26536;SDS011;14204;51.262;5.488;2023-02-05T03:42:12;78.88;;;36.85;;
26536;SDS011;14204;51.262;5.488;2023-02-05T03:44:54;72.70;;;34.85;;
26536;SDS011;14204;51.262;5.488;2023-02-05T03:53:05;58.58;;;28.10;;
26536;SDS011;14204;51.262;5.488;2023-02-05T03:55:41;53.30;;;27.85;;
26536;SDS011;14204;51.262;5.488;2023-02-05T04:00:53;56.17;;;28.42;;
26536;SDS011;14204;51.262;5.488;2023-02-05T04:03:19;54.58;;;27.15;;
26536;SDS011;14204;51.262;5.488;2023-02-05T04:05:44;57.45;;;27.27;;
26536;SDS011;14204;51.262;5.488;2023-02-05T04:08:10;58.95;;;29.05;;
26536;SDS011;14204;51.262;5.488;2023-02-05T04:10:36;47.03;;;25.70;;
26536;SDS011;14204;51.262;5.488;2023-02-05T04:13:02;60.28;;;28.85;;
26536;SDS011;14204;51.262;5.488;2023-02-05T04:15:27;54.70;;;28.63;;
26536;SDS011;14204;51.262;5.488;2023-02-05T04:17:53;55.88;;;29.30;;
26536;SDS011;14204;51.262;5.488;2023-02-05T04:20:21;50.80;;;25.88;;
26536;SDS011;14204;51.262;5.488;2023-02-05T04:22:47;52.97;;;25.17;;
26536;SDS011;14204;51.262;5.488;2023-02-05T04:25:13;51.67;;;26.40;;
26536;SDS011;14204;51.262;5.488;2023-02-05T04:27:38;50.70;;;27.08;;
26536;SDS011;14204;51.262;5.488;2023-02-05T04:30:04;47.85;;;25.00;;
26536;SDS011;14204;51.262;5.488;2023-02-05T04:32:31;49.97;;;26.42;;
26536;SDS011;14204;51.262;5.488;2023-02-05T04:34:56;53.55;;;26.10;;
26536;SDS011;14204;51.262;5.488;2023-02-05T04:37:22;57.92;;;27.40;;
26536;SDS011;14204;51.262;5.488;2023-02-05T04:39:49;50.85;;;26.92;;
26536;SDS011;14204;51.262;5.488;2023-02-05T04:42:15;49.72;;;27.42;;
26536;SDS011;14204;51.262;5.488;2023-02-05T04:44:40;55.50;;;29.05;;
26536;SDS011;14204;51.262;5.488;2023-02-05T04:47:06;54.78;;;28.45;;
26536;SDS011;14204;51.262;5.488;2023-02-05T04:49:32;55.25;;;29.80;;
26536;SDS011;14204;51.262;5.488;2023-02-05T04:51:58;52.03;;;29.15;;
26536;SDS011;14204;51.262;5.488;2023-02-05T04:54:24;48.72;;;27.08;;
26536;SDS011;14204;51.262;5.488;2023-02-05T04:56:49;53.08;;;27.45;;
26536;SDS011;14204;51.262;5.488;2023-02-05T04:59:15;60.85;;;29.27;;
26536;SDS011;14204;51.262;5.488;2023-02-05T05:01:41;57.47;;;29.23;;
26536;SDS011;14204;51.262;5.488;2023-02-05T05:04:07;56.50;;;27.67;;
26536;SDS011;14204;51.262;5.488;2023-02-05T05:06:32;55.03;;;29.92;;
26536;SDS011;14204;51.262;5.488;2023-02-05T05:08:58;55.42;;;29.42;;
26536;SDS011;14204;51.262;5.488;2023-02-05T05:11:24;52.17;;;29.30;;
26536;SDS011;14204;51.262;5.488;2023-02-05T05:13:49;51.50;;;27.60;;
26536;SDS011;14204;51.262;5.488;2023-02-05T05:16:16;54.47;;;29.60;;
26536;SDS011;14204;51.262;5.488;2023-02-05T05:18:42;52.30;;;26.25;;
26536;SDS011;14204;51.262;5.488;2023-02-05T05:21:07;52.35;;;29.00;;
26536;SDS011;14204;51.262;5.488;2023-02-05T05:23:35;47.00;;;26.17;;
26536;SDS011;14204;51.262;5.488;2023-02-05T05:26:05;47.45;;;25.13;;
26536;SDS011;14204;51.262;5.488;2023-02-05T05:28:32;45.80;;;26.05;;
26536;SDS011;14204;51.262;5.488;2023-02-05T05:30:59;46.92;;;26.33;;
26536;SDS011;14204;51.262;5.488;2023-02-05T05:33:30;49.75;;;26.60;;
26536;SDS011;14204;51.262;5.488;2023-02-05T05:35:56;45.63;;;24.27;;
26536;SDS011;14204;51.262;5.488;2023-02-05T05:38:21;47.25;;;26.60;;
26536;SDS011;14204;51.262;5.488;2023-02-05T05:40:47;45.20;;;24.98;;
26536;SDS011;14204;51.262;5.488;2023-02-05T05:43:31;48.80;;;26.30;;
26536;SDS011;14204;51.262;5.488;2023-02-05T05:46:20;45.90;;;26.10;;
26536;SDS011;14204;51.262;5.488;2023-02-05T05:48:51;46.22;;;25.80;;
26536;SDS011;14204;51.262;5.488;2023-02-05T05:51:19;39.53;;;24.17;;
26536;SDS011;14204;51.262;5.488;2023-02-05T05:53:46;41.67;;;24.10;;
26536;SDS011;14204;51.262;5.488;2023-02-05T05:56:13;47.55;;;24.00;;
26536;SDS011;14204;51.262;5.488;2023-02-05T05:58:39;41.95;;;23.30;;
26536;SDS011;14204;51.262;5.488;2023-02-05T06:01:05;45.70;;;23.70;;
26536;SDS011;14204;51.262;5.488;2023-02-05T06:03:32;46.70;;;23.20;;
26536;SDS011;14204;51.262;5.488;2023-02-05T06:06:01;42.63;;;22.42;;
26536;SDS011;14204;51.262;5.488;2023-02-05T06:08:28;40.03;;;23.25;;
26536;SDS011;14204;51.262;5.488;2023-02-05T06:10:54;44.03;;;24.63;;
26536;SDS011;14204;51.262;5.488;2023-02-05T06:13:20;48.20;;;24.98;;
26536;SDS011;14204;51.262;5.488;2023-02-05T06:15:46;49.60;;;26.98;;
26536;SDS011;14204;51.262;5.488;2023-02-05T06:18:13;46.80;;;26.17;;
26536;SDS011;14204;51.262;5.488;2023-02-05T06:20:42;57.47;;;28.23;;
26536;SDS011;14204;51.262;5.488;2023-02-05T06:23:08;48.78;;;24.80;;
26536;SDS011;14204;51.262;5.488;2023-02-05T06:25:34;48.17;;;24.90;;
26536;SDS011;14204;51.262;5.488;2023-02-05T06:28:00;61.85;;;29.20;;
26536;SDS011;14204;51.262;5.488;2023-02-05T06:30:25;62.28;;;30.10;;
26536;SDS011;14204;51.262;5.488;2023-02-05T06:32:51;43.78;;;24.00;;
26536;SDS011;14204;51.262;5.488;2023-02-05T06:35:17;39.83;;;21.55;;
26536;SDS011;14204;51.262;5.488;2023-02-05T06:37:43;41.65;;;24.10;;
26536;SDS011;14204;51.262;5.488;2023-02-05T06:40:08;40.55;;;24.25;;
26536;SDS011;14204;51.262;5.488;2023-02-05T06:42:35;39.17;;;21.77;;
26536;SDS011;14204;51.262;5.488;2023-02-05T06:45:00;34.72;;;20.40;;
26536;SDS011;14204;51.262;5.488;2023-02-05T06:47:26;37.17;;;20.27;;
26536;SDS011;14204;51.262;5.488;2023-02-05T06:49:51;30.63;;;18.98;;
26536;SDS011;14204;51.262;5.488;2023-02-05T06:52:17;24.73;;;16.73;;
26536;SDS011;14204;51.262;5.488;2023-02-05T06:54:43;22.42;;;14.43;;
26536;SDS011;14204;51.262;5.488;2023-02-05T06:57:09;18.40;;;12.02;;
26536;SDS011;14204;51.262;5.488;2023-02-05T06:59:35;22.02;;;14.45;;
26536;SDS011;14204;51.262;5.488;2023-02-05T07:02:01;17.75;;;12.20;;
26536;SDS011;14204;51.262;5.488;2023-02-05T07:04:26;16.45;;;11.32;;
26536;SDS011;14204;51.262;5.488;2023-02-05T07:06:55;16.90;;;10.20;;
26536;SDS011;14204;51.262;5.488;2023-02-05T07:09:21;17.60;;;10.48;;
26536;SDS011;14204;51.262;5.488;2023-02-05T07:11:46;15.27;;;8.98;;
26536;SDS011;14204;51.262;5.488;2023-02-05T07:14:12;10.93;;;8.02;;
26536;SDS011;14204;51.262;5.488;2023-02-05T07:16:38;15.52;;;6.97;;
26536;SDS011;14204;51.262;5.488;2023-02-05T07:19:03;12.80;;;6.32;;
26536;SDS011;14204;51.262;5.488;2023-02-05T07:21:29;9.52;;;5.30;;
26536;SDS011;14204;51.262;5.488;2023-02-05T07:23:55;11.45;;;4.70;;
26536;SDS011;14204;51.262;5.488;2023-02-05T07:26:20;6.80;;;3.58;;
26536;SDS011;14204;51.262;5.488;2023-02-05T07:28:47;8.98;;;3.50;;
26536;SDS011;14204;51.262;5.488;2023-02-05T07:31:14;11.15;;;2.20;;
26536;SDS011;14204;51.262;5.488;2023-02-05T07:33:42;7.95;;;2.13;;
26536;SDS011;14204;51.262;5.488;2023-02-05T07:36:09;8.85;;;1.90;;
26536;SDS011;14204;51.262;5.488;2023-02-05T07:38:36;7.72;;;1.40;;
26536;SDS011;14204;51.262;5.488;2023-02-05T07:41:02;4.95;;;1.20;;
26536;SDS011;14204;51.262;5.488;2023-02-05T07:43:29;8.10;;;1.45;;
26536;SDS011;14204;51.262;5.488;2023-02-05T07:45:55;5.03;;;0.80;;
26536;SDS011;14204;51.262;5.488;2023-02-05T07:48:25;7.40;;;1.13;;
26536;SDS011;14204;51.262;5.488;2023-02-05T07:50:51;6.15;;;0.65;;
26536;SDS011;14204;51.262;5.488;2023-02-05T07:53:17;6.85;;;1.13;;
26536;SDS011;14204;51.262;5.488;2023-02-05T07:55:43;4.97;;;1.25;;
26536;SDS011;14204;51.262;5.488;2023-02-05T07:58:09;7.65;;;1.23;;
26536;SDS011;14204;51.262;5.488;2023-02-05T08:00:34;11.10;;;0.80;;
26536;SDS011;14204;51.262;5.488;2023-02-05T08:03:00;4.68;;;0.90;;
26536;SDS011;14204;51.262;5.488;2023-02-05T08:05:26;9.27;;;0.95;;
26536;SDS011;14204;51.262;5.488;2023-02-05T08:07:52;6.07;;;0.90;;
26536;SDS011;14204;51.262;5.488;2023-02-05T08:10:18;7.30;;;0.90;;
26536;SDS011;14204;51.262;5.488;2023-02-05T08:12:44;6.32;;;1.05;;
26536;SDS011;14204;51.262;5.488;2023-02-05T08:15:09;8.85;;;1.20;;
26536;SDS011;14204;51.262;5.488;2023-02-05T08:17:35;5.95;;;1.45;;
26536;SDS011;14204;51.262;5.488;2023-02-05T08:20:01;8.90;;;1.23;;
26536;SDS011;14204;51.262;5.488;2023-02-05T08:22:31;8.73;;;1.35;;
26536;SDS011;14204;51.262;5.488;2023-02-05T08:24:58;7.22;;;1.25;;
26536;SDS011;14204;51.262;5.488;2023-02-05T08:27:24;9.07;;;1.40;;
26536;SDS011;14204;51.262;5.488;2023-02-05T08:29:50;10.38;;;1.10;;
26536;SDS011;14204;51.262;5.488;2023-02-05T08:32:15;8.90;;;1.30;;
26536;SDS011;14204;51.262;5.488;2023-02-05T08:34:41;12.32;;;1.65;;
26536;SDS011;14204;51.262;5.488;2023-02-05T08:37:07;7.00;;;1.00;;
26536;SDS011;14204;51.262;5.488;2023-02-05T08:39:33;11.73;;;1.60;;
26536;SDS011;14204;51.262;5.488;2023-02-05T08:41:58;9.50;;;1.60;;
26536;SDS011;14204;51.262;5.488;2023-02-05T08:44:24;8.43;;;1.77;;
26536;SDS011;14204;51.262;5.488;2023-02-05T08:46:52;10.75;;;2.60;;
26536;SDS011;14204;51.262;5.488;2023-02-05T08:49:18;11.63;;;1.90;;
26536;SDS011;14204;51.262;5.488;2023-02-05T08:51:44;13.02;;;2.33;;
26536;SDS011;14204;51.262;5.488;2023-02-05T08:54:10;12.50;;;1.70;;
26536;SDS011;14204;51.262;5.488;2023-02-05T08:56:41;13.82;;;2.53;;
26536;SDS011;14204;51.262;5.488;2023-02-05T08:59:08;9.10;;;1.88;;
26536;SDS011;14204;51.262;5.488;2023-02-05T09:01:35;9.57;;;2.63;;
26536;SDS011;14204;51.262;5.488;2023-02-05T09:06:36;15.50;;;2.45;;
26536;SDS011;14204;51.262;5.488;2023-02-05T09:09:01;11.38;;;1.85;;
26536;SDS011;14204;51.262;5.488;2023-02-05T09:11:27;7.53;;;1.83;;
26536;SDS011;14204;51.262;5.488;2023-02-05T09:13:55;15.00;;;2.25;;
26536;SDS011;14204;51.262;5.488;2023-02-05T09:16:24;18.50;;;2.30;;
26536;SDS011;14204;51.262;5.488;2023-02-05T09:18:52;11.98;;;2.38;;
26536;SDS011;14204;51.262;5.488;2023-02-05T09:21:19;16.45;;;2.63;;
26536;SDS011;14204;51.262;5.488;2023-02-05T09:23:45;15.73;;;2.50;;
26536;SDS011;14204;51.262;5.488;2023-02-05T09:26:11;21.15;;;2.75;;
26536;SDS011;14204;51.262;5.488;2023-02-05T09:28:37;17.35;;;2.45;;
26536;SDS011;14204;51.262;5.488;2023-02-05T09:31:08;12.05;;;2.17;;
26536;SDS011;14204;51.262;5.488;2023-02-05T09:33:36;20.58;;;3.38;;
26536;SDS011;14204;51.262;5.488;2023-02-05T09:36:09;25.85;;;3.08;;
26536;SDS011;14204;51.262;5.488;2023-02-05T09:38:39;17.85;;;2.72;;
26536;SDS011;14204;51.262;5.488;2023-02-05T09:49:34;14.82;;;2.67;;
26536;SDS011;14204;51.262;5.488;2023-02-05T09:52:19;19.67;;;4.60;;
26536;SDS011;14204;51.262;5.488;2023-02-05T09:54:52;17.23;;;3.28;;
26536;SDS011;14204;51.262;5.488;2023-02-05T09:57:39;20.40;;;2.85;;
26536;SDS011;14204;51.262;5.488;2023-02-05T10:02:51;25.25;;;3.25;;
26536;SDS011;14204;51.262;5.488;2023-02-05T10:05:25;18.13;;;3.67;;
26536;SDS011;14204;51.262;5.488;2023-02-05T10:07:58;23.73;;;3.33;;
26536;SDS011;14204;51.262;5.488;2023-02-05T10:13:29;19.63;;;3.55;;
26536;SDS011;14204;51.262;5.488;2023-02-05T10:24:53;34.50;;;4.70;;
26536;SDS011;14204;51.262;5.488;2023-02-05T10:27:47;31.52;;;4.63;;
26536;SDS011;14204;51.262;5.488;2023-02-05T10:36:05;33.55;;;5.03;;
26536;SDS011;14204;51.262;5.488;2023-02-05T10:38:34;23.90;;;4.03;;
26536;SDS011;14204;51.262;5.488;2023-02-05T10:41:10;27.42;;;4.70;;
26536;SDS011;14204;51.262;5.488;2023-02-05T10:43:47;32.70;;;4.95;;
26536;SDS011;14204;51.262;5.488;2023-02-05T10:46:36;32.38;;;3.92;;
26536;SDS011;14204;51.262;5.488;2023-02-05T10:51:40;29.37;;;5.03;;
26536;SDS011;14204;51.262;5.488;2023-02-05T10:54:25;38.25;;;4.97;;
26536;SDS011;14204;51.262;5.488;2023-02-05T10:56:54;21.13;;;4.20;;
26536;SDS011;14204;51.262;5.488;2023-02-05T10:59:24;29.35;;;4.60;;
26536;SDS011;14204;51.262;5.488;2023-02-05T11:01:52;26.73;;;4.80;;
26536;SDS011;14204;51.262;5.488;2023-02-05T11:04:24;34.72;;;4.93;;
26536;SDS011;14204;51.262;5.488;2023-02-05T11:07:13;27.45;;;4.55;;
26536;SDS011;14204;51.262;5.488;2023-02-05T11:12:52;34.00;;;4.80;;
26536;SDS011;14204;51.262;5.488;2023-02-05T11:15:25;26.40;;;4.47;;
26536;SDS011;14204;51.262;5.488;2023-02-05T11:17:57;33.88;;;4.78;;
26536;SDS011;14204;51.262;5.488;2023-02-05T11:20:34;25.77;;;4.15;;
26536;SDS011;14204;51.262;5.488;2023-02-05T11:23:16;30.65;;;5.30;;
26536;SDS011;14204;51.262;5.488;2023-02-05T11:25:51;25.00;;;5.07;;
26536;SDS011;14204;51.262;5.488;2023-02-05T11:28:25;25.23;;;4.40;;
26536;SDS011;14204;51.262;5.488;2023-02-05T11:30:53;20.92;;;4.32;;
26536;SDS011;14204;51.262;5.488;2023-02-05T11:38:46;21.10;;;4.43;;
26536;SDS011;14204;51.262;5.488;2023-02-05T11:46:48;22.33;;;4.35;;
26536;SDS011;14204;51.262;5.488;2023-02-05T11:51:52;26.05;;;4.43;;
26536;SDS011;14204;51.262;5.488;2023-02-05T11:59:56;21.52;;;3.63;;
26536;SDS011;14204;51.262;5.488;2023-02-05T12:05:03;26.50;;;4.25;;
26536;SDS011;14204;51.262;5.488;2023-02-05T12:16:27;29.77;;;4.47;;
26536;SDS011;14204;51.262;5.488;2023-02-05T12:19:15;26.17;;;4.55;;
26536;SDS011;14204;51.262;5.488;2023-02-05T12:27:23;30.60;;;5.13;;
26536;SDS011;14204;51.262;5.488;2023-02-05T12:30:19;27.40;;;4.05;;
26536;SDS011;14204;51.262;5.488;2023-02-05T12:38:27;22.77;;;4.68;;
26536;SDS011;14204;51.262;5.488;2023-02-05T12:43:46;26.27;;;5.20;;
26536;SDS011;14204;51.262;5.488;2023-02-05T12:54:40;27.50;;;4.53;;
26536;SDS011;14204;51.262;5.488;2023-02-05T12:57:09;22.40;;;5.05;;
26536;SDS011;14204;51.262;5.488;2023-02-05T12:59:47;27.33;;;5.35;;
26536;SDS011;14204;51.262;5.488;2023-02-05T13:04:48;35.88;;;4.82;;
26536;SDS011;14204;51.262;5.488;2023-02-05T13:10:02;26.13;;;4.28;;
26536;SDS011;14204;51.262;5.488;2023-02-05T13:12:38;26.15;;;4.20;;
26536;SDS011;14204;51.262;5.488;2023-02-05T13:17:41;31.92;;;5.25;;
26536;SDS011;14204;51.262;5.488;2023-02-05T13:20:37;25.27;;;5.53;;
26536;SDS011;14204;51.262;5.488;2023-02-05T13:23:24;26.00;;;4.95;;
26536;SDS011;14204;51.262;5.488;2023-02-05T13:26:10;34.22;;;5.15;;
26536;SDS011;14204;51.262;5.488;2023-02-05T13:29:10;21.55;;;4.22;;
26536;SDS011;14204;51.262;5.488;2023-02-05T13:31:47;23.52;;;3.95;;
26536;SDS011;14204;51.262;5.488;2023-02-05T13:34:17;29.42;;;5.20;;
26536;SDS011;14204;51.262;5.488;2023-02-05T13:45:26;27.65;;;4.68;;
26536;SDS011;14204;51.262;5.488;2023-02-05T13:48:26;18.05;;;3.92;;
26536;SDS011;14204;51.262;5.488;2023-02-05T13:53:46;23.38;;;4.20;;
26536;SDS011;14204;51.262;5.488;2023-02-05T13:56:32;24.20;;;4.38;;
26536;SDS011;14204;51.262;5.488;2023-02-05T13:59:03;25.88;;;4.70;;
26536;SDS011;14204;51.262;5.488;2023-02-05T14:01:40;28.90;;;4.28;;
26536;SDS011;14204;51.262;5.488;2023-02-05T14:04:43;31.65;;;4.20;;
26536;SDS011;14204;51.262;5.488;2023-02-05T14:07:05;22.20;;;3.50;;
26536;SDS011;14204;51.262;5.488;2023-02-05T14:09:38;24.77;;;4.47;;
26536;SDS011;14204;51.262;5.488;2023-02-05T14:12:12;19.33;;;3.67;;
26536;SDS011;14204;51.262;5.488;2023-02-05T14:15:20;18.73;;;4.18;;
26536;SDS011;14204;51.262;5.488;2023-02-05T14:17:53;23.00;;;4.47;;
26536;SDS011;14204;51.262;5.488;2023-02-05T14:22:57;22.52;;;3.78;;
26536;SDS011;14204;51.262;5.488;2023-02-05T14:33:30;26.67;;;4.25;;
26536;SDS011;14204;51.262;5.488;2023-02-05T14:41:22;22.25;;;4.03;;
26536;SDS011;14204;51.262;5.488;2023-02-05T14:49:00;21.70;;;4.40;;
26536;SDS011;14204;51.262;5.488;2023-02-05T14:51:49;19.27;;;4.57;;
26536;SDS011;14204;51.262;5.488;2023-02-05T14:54:19;20.90;;;4.15;;
26536;SDS011;14204;51.262;5.488;2023-02-05T14:56:49;27.10;;;3.53;;
26536;SDS011;14204;51.262;5.488;2023-02-05T14:59:21;22.70;;;3.97;;
26536;SDS011;14204;51.262;5.488;2023-02-05T15:01:53;24.73;;;4.13;;
26536;SDS011;14204;51.262;5.488;2023-02-05T15:04:33;21.17;;;3.95;;
26536;SDS011;14204;51.262;5.488;2023-02-05T15:07:14;29.67;;;4.70;;
26536;SDS011;14204;51.262;5.488;2023-02-05T15:15:24;30.05;;;3.92;;
26536;SDS011;14204;51.262;5.488;2023-02-05T15:17:55;22.73;;;4.07;;
26536;SDS011;14204;51.262;5.488;2023-02-05T15:20:43;22.63;;;4.75;;
26536;SDS011;14204;51.262;5.488;2023-02-05T15:26:03;31.13;;;4.65;;
26536;SDS011;14204;51.262;5.488;2023-02-05T15:31:25;27.98;;;4.97;;
26536;SDS011;14204;51.262;5.488;2023-02-05T15:34:23;23.13;;;4.35;;
26536;SDS011;14204;51.262;5.488;2023-02-05T15:40:08;21.48;;;4.30;;
26536;SDS011;14204;51.262;5.488;2023-02-05T15:42:41;19.67;;;3.83;;
26536;SDS011;14204;51.262;5.488;2023-02-05T15:45:22;26.35;;;4.72;;
26536;SDS011;14204;51.262;5.488;2023-02-05T15:48:09;30.45;;;4.57;;
26536;SDS011;14204;51.262;5.488;2023-02-05T15:50:48;28.35;;;4.28;;
26536;SDS011;14204;51.262;5.488;2023-02-05T15:53:29;30.88;;;4.65;;
26536;SDS011;14204;51.262;5.488;2023-02-05T15:58:36;30.90;;;4.55;;
26536;SDS011;14204;51.262;5.488;2023-02-05T16:03:34;23.85;;;4.88;;
26536;SDS011;14204;51.262;5.488;2023-02-05T16:06:02;28.65;;;4.88;;
26536;SDS011;14204;51.262;5.488;2023-02-05T16:08:30;32.53;;;5.20;;
26536;SDS011;14204;51.262;5.488;2023-02-05T16:10:58;29.67;;;4.88;;
26536;SDS011;14204;51.262;5.488;2023-02-05T16:13:27;34.50;;;5.10;;
26536;SDS011;14204;51.262;5.488;2023-02-05T16:18:38;37.60;;;6.30;;
26536;SDS011;14204;51.262;5.488;2023-02-05T16:21:27;29.77;;;4.13;;
26536;SDS011;14204;51.262;5.488;2023-02-05T16:24:03;30.98;;;5.18;;
26536;SDS011;14204;51.262;5.488;2023-02-05T16:29:06;24.73;;;5.25;;
26536;SDS011;14204;51.262;5.488;2023-02-05T16:31:42;31.95;;;5.38;;
26536;SDS011;14204;51.262;5.488;2023-02-05T16:34:15;35.67;;;5.32;;
26536;SDS011;14204;51.262;5.488;2023-02-05T16:36:43;28.52;;;5.03;;
26536;SDS011;14204;51.262;5.488;2023-02-05T16:39:18;28.25;;;5.22;;
26536;SDS011;14204;51.262;5.488;2023-02-05T16:42:08;38.03;;;5.93;;
26536;SDS011;14204;51.262;5.488;2023-02-05T16:48:47;24.33;;;4.70;;
26536;SDS011;14204;51.262;5.488;2023-02-05T16:50:46;31.63;;;5.30;;
26536;SDS011;14204;51.262;5.488;2023-02-05T16:53:13;29.13;;;5.13;;
26536;SDS011;14204;51.262;5.488;2023-02-05T16:55:47;33.70;;;5.45;;
26536;SDS011;14204;51.262;5.488;2023-02-05T16:58:21;29.67;;;4.82;;
26536;SDS011;14204;51.262;5.488;2023-02-05T17:00:50;34.15;;;5.88;;
26536;SDS011;14204;51.262;5.488;2023-02-05T17:03:18;26.58;;;5.38;;
26536;SDS011;14204;51.262;5.488;2023-02-05T17:05:44;29.20;;;5.65;;
26536;SDS011;14204;51.262;5.488;2023-02-05T17:08:26;25.83;;;5.28;;
26536;SDS011;14204;51.262;5.488;2023-02-05T17:11:02;38.10;;;5.93;;
26536;SDS011;14204;51.262;5.488;2023-02-05T17:21:28;31.48;;;6.82;;
26536;SDS011;14204;51.262;5.488;2023-02-05T17:24:03;39.92;;;6.65;;
26536;SDS011;14204;51.262;5.488;2023-02-05T17:26:34;37.13;;;6.20;;
26536;SDS011;14204;51.262;5.488;2023-02-05T17:29:04;41.97;;;6.38;;
26536;SDS011;14204;51.262;5.488;2023-02-05T17:31:32;36.83;;;6.30;;
26536;SDS011;14204;51.262;5.488;2023-02-05T17:34:01;33.65;;;5.32;;
26536;SDS011;14204;51.262;5.488;2023-02-05T17:36:27;39.88;;;6.38;;
26536;SDS011;14204;51.262;5.488;2023-02-05T17:38:52;38.92;;;6.40;;
26536;SDS011;14204;51.262;5.488;2023-02-05T17:41:25;27.85;;;5.55;;
26536;SDS011;14204;51.262;5.488;2023-02-05T17:44:12;41.42;;;6.40;;
26536;SDS011;14204;51.262;5.488;2023-02-05T17:46:40;45.22;;;7.00;;
26536;SDS011;14204;51.262;5.488;2023-02-05T17:49:06;35.70;;;5.80;;
26536;SDS011;14204;51.262;5.488;2023-02-05T17:51:32;37.53;;;5.55;;
26536;SDS011;14204;51.262;5.488;2023-02-05T17:53:58;29.27;;;5.35;;
26536;SDS011;14204;51.262;5.488;2023-02-05T17:56:24;37.38;;;7.90;;
26536;SDS011;14204;51.262;5.488;2023-02-05T17:58:50;44.25;;;6.18;;
26536;SDS011;14204;51.262;5.488;2023-02-05T18:01:17;35.38;;;6.13;;
26536;SDS011;14204;51.262;5.488;2023-02-05T18:03:43;38.58;;;6.80;;
26536;SDS011;14204;51.262;5.488;2023-02-05T18:06:10;40.45;;;6.38;;
26536;SDS011;14204;51.262;5.488;2023-02-05T18:08:37;39.67;;;6.05;;
26536;SDS011;14204;51.262;5.488;2023-02-05T18:11:02;36.42;;;6.57;;
26536;SDS011;14204;51.262;5.488;2023-02-05T18:13:28;38.72;;;6.63;;